sensor_id;sensor_type;location;lat;lon;timestamp;P1;durP1;ratioP1;P2;durP2;ratioP2
55931;SDS011;41837;55.700;37.984;2023-05-07T00:00:02;9.48;;;4.53;;
55931;SDS011;41837;55.700;37.984;2023-05-07T00:02:35;8.40;;;4.38;;
55931;SDS011;41837;55.700;37.984;2023-05-07T00:05:03;7.57;;;4.53;;
55931;SDS011;41837;55.700;37.984;2023-05-07T00:07:32;10.75;;;3.97;;
55931;SDS011;41837;55.700;37.984;2023-05-07T00:09:58;9.30;;;4.50;;
55931;SDS011;41837;55.700;37.984;2023-05-07T00:12:24;9.40;;;4.55;;
55931;SDS011;41837;55.700;37.984;2023-05-07T00:14:51;10.70;;;4.63;;
55931;SDS011;41837;55.700;37.984;2023-05-07T00:17:17;9.80;;;5.18;;
55931;SDS011;41837;55.700;37.984;2023-05-07T00:19:43;8.98;;;4.68;;
55931;SDS011;41837;55.700;37.984;2023-05-07T00:22:10;13.43;;;4.72;;
55931;SDS011;41837;55.700;37.984;2023-05-07T00:24:36;9.18;;;4.85;;
55931;SDS011;41837;55.700;37.984;2023-05-07T00:27:02;7.85;;;4.65;;
55931;SDS011;41837;55.700;37.984;2023-05-07T00:29:28;15.18;;;4.68;;
55931;SDS011;41837;55.700;37.984;2023-05-07T00:31:55;8.43;;;4.85;;
55931;SDS011;41837;55.700;37.984;2023-05-07T00:34:21;11.32;;;4.90;;
55931;SDS011;41837;55.700;37.984;2023-05-07T00:36:48;9.13;;;4.93;;
55931;SDS011;41837;55.700;37.984;2023-05-07T00:39:14;11.63;;;5.65;;
55931;SDS011;41837;55.700;37.984;2023-05-07T00:41:40;12.30;;;5.43;;
55931;SDS011;41837;55.700;37.984;2023-05-07T00:44:06;11.18;;;5.22;;
55931;SDS011;41837;55.700;37.984;2023-05-07T00:46:33;20.15;;;6.10;;
55931;SDS011;41837;55.700;37.984;2023-05-07T00:48:59;14.95;;;5.22;;
55931;SDS011;41837;55.700;37.984;2023-05-07T00:51:26;11.15;;;5.40;;
55931;SDS011;41837;55.700;37.984;2023-05-07T00:53:54;16.35;;;6.20;;
55931;SDS011;41837;55.700;37.984;2023-05-07T00:56:21;12.45;;;5.43;;
55931;SDS011;41837;55.700;37.984;2023-05-07T00:58:48;11.70;;;5.50;;
55931;SDS011;41837;55.700;37.984;2023-05-07T01:01:15;10.15;;;5.00;;
55931;SDS011;41837;55.700;37.984;2023-05-07T01:03:42;19.25;;;6.05;;
55931;SDS011;41837;55.700;37.984;2023-05-07T01:06:09;13.30;;;5.63;;
55931;SDS011;41837;55.700;37.984;2023-05-07T01:08:39;17.48;;;6.72;;
55931;SDS011;41837;55.700;37.984;2023-05-07T01:11:06;13.15;;;5.82;;
55931;SDS011;41837;55.700;37.984;2023-05-07T01:13:34;13.68;;;5.95;;
55931;SDS011;41837;55.700;37.984;2023-05-07T01:16:02;17.85;;;5.80;;
55931;SDS011;41837;55.700;37.984;2023-05-07T01:18:29;13.07;;;5.53;;
55931;SDS011;41837;55.700;37.984;2023-05-07T01:20:57;11.98;;;5.97;;
55931;SDS011;41837;55.700;37.984;2023-05-07T01:23:25;13.95;;;5.45;;
55931;SDS011;41837;55.700;37.984;2023-05-07T01:25:54;10.90;;;5.68;;
55931;SDS011;41837;55.700;37.984;2023-05-07T01:28:23;11.40;;;5.70;;
55931;SDS011;41837;55.700;37.984;2023-05-07T01:30:51;11.20;;;4.93;;
55931;SDS011;41837;55.700;37.984;2023-05-07T01:33:21;8.95;;;4.93;;
55931;SDS011;41837;55.700;37.984;2023-05-07T01:35:50;18.02;;;5.82;;
55931;SDS011;41837;55.700;37.984;2023-05-07T01:38:19;19.65;;;5.20;;
55931;SDS011;41837;55.700;37.984;2023-05-07T01:40:47;9.73;;;4.95;;
55931;SDS011;41837;55.700;37.984;2023-05-07T01:43:14;11.27;;;5.45;;
55931;SDS011;41837;55.700;37.984;2023-05-07T01:45:41;12.48;;;5.28;;
55931;SDS011;41837;55.700;37.984;2023-05-07T01:48:09;14.68;;;5.18;;
55931;SDS011;41837;55.700;37.984;2023-05-07T01:50:36;16.35;;;5.53;;
55931;SDS011;41837;55.700;37.984;2023-05-07T01:53:03;16.45;;;5.85;;
55931;SDS011;41837;55.700;37.984;2023-05-07T01:55:30;11.85;;;5.30;;
55931;SDS011;41837;55.700;37.984;2023-05-07T01:57:56;10.70;;;5.70;;
55931;SDS011;41837;55.700;37.984;2023-05-07T02:00:22;13.13;;;5.20;;
55931;SDS011;41837;55.700;37.984;2023-05-07T02:02:48;12.52;;;5.43;;
55931;SDS011;41837;55.700;37.984;2023-05-07T02:05:25;12.80;;;5.07;;
55931;SDS011;41837;55.700;37.984;2023-05-07T02:07:58;12.38;;;5.25;;
55931;SDS011;41837;55.700;37.984;2023-05-07T02:10:26;16.35;;;5.03;;
55931;SDS011;41837;55.700;37.984;2023-05-07T02:12:53;10.32;;;4.40;;
55931;SDS011;41837;55.700;37.984;2023-05-07T02:15:19;15.00;;;4.68;;
55931;SDS011;41837;55.700;37.984;2023-05-07T02:17:59;9.77;;;4.68;;
55931;SDS011;41837;55.700;37.984;2023-05-07T02:20:26;9.80;;;4.32;;
55931;SDS011;41837;55.700;37.984;2023-05-07T02:22:53;10.38;;;4.07;;
55931;SDS011;41837;55.700;37.984;2023-05-07T02:25:19;8.77;;;4.65;;
55931;SDS011;41837;55.700;37.984;2023-05-07T02:27:46;16.73;;;5.32;;
55931;SDS011;41837;55.700;37.984;2023-05-07T02:30:14;10.43;;;4.90;;
55931;SDS011;41837;55.700;37.984;2023-05-07T02:32:41;11.13;;;4.68;;
55931;SDS011;41837;55.700;37.984;2023-05-07T02:35:07;8.38;;;4.40;;
55931;SDS011;41837;55.700;37.984;2023-05-07T02:37:33;7.43;;;4.25;;
55931;SDS011;41837;55.700;37.984;2023-05-07T02:40:00;8.43;;;4.50;;
55931;SDS011;41837;55.700;37.984;2023-05-07T02:42:26;8.48;;;4.07;;
55931;SDS011;41837;55.700;37.984;2023-05-07T02:44:52;9.65;;;4.47;;
55931;SDS011;41837;55.700;37.984;2023-05-07T02:47:19;13.85;;;4.63;;
55931;SDS011;41837;55.700;37.984;2023-05-07T02:49:45;12.07;;;4.30;;
55931;SDS011;41837;55.700;37.984;2023-05-07T02:52:12;13.18;;;4.45;;
55931;SDS011;41837;55.700;37.984;2023-05-07T02:54:38;11.02;;;4.07;;
55931;SDS011;41837;55.700;37.984;2023-05-07T02:57:05;12.50;;;5.28;;
55931;SDS011;41837;55.700;37.984;2023-05-07T02:59:31;9.05;;;5.50;;
55931;SDS011;41837;55.700;37.984;2023-05-07T03:01:58;11.98;;;5.13;;
55931;SDS011;41837;55.700;37.984;2023-05-07T03:04:25;11.18;;;4.18;;
55931;SDS011;41837;55.700;37.984;2023-05-07T03:06:51;8.75;;;5.30;;
55931;SDS011;41837;55.700;37.984;2023-05-07T03:09:17;7.85;;;4.57;;
55931;SDS011;41837;55.700;37.984;2023-05-07T03:11:43;7.38;;;4.10;;
55931;SDS011;41837;55.700;37.984;2023-05-07T03:14:10;10.38;;;4.15;;
55931;SDS011;41837;55.700;37.984;2023-05-07T03:16:36;8.43;;;3.85;;
55931;SDS011;41837;55.700;37.984;2023-05-07T03:19:03;6.20;;;3.70;;
55931;SDS011;41837;55.700;37.984;2023-05-07T03:21:30;6.63;;;3.75;;
55931;SDS011;41837;55.700;37.984;2023-05-07T03:24:00;17.35;;;6.50;;
55931;SDS011;41837;55.700;37.984;2023-05-07T03:26:26;10.32;;;5.57;;
55931;SDS011;41837;55.700;37.984;2023-05-07T03:28:53;9.82;;;4.30;;
55931;SDS011;41837;55.700;37.984;2023-05-07T03:31:19;11.43;;;3.95;;
55931;SDS011;41837;55.700;37.984;2023-05-07T03:33:50;9.65;;;3.92;;
55931;SDS011;41837;55.700;37.984;2023-05-07T03:36:17;8.80;;;3.90;;
55931;SDS011;41837;55.700;37.984;2023-05-07T03:38:43;11.20;;;3.60;;
55931;SDS011;41837;55.700;37.984;2023-05-07T03:41:10;5.90;;;3.75;;
55931;SDS011;41837;55.700;37.984;2023-05-07T03:43:38;8.70;;;3.63;;
55931;SDS011;41837;55.700;37.984;2023-05-07T03:46:08;6.43;;;3.38;;
55931;SDS011;41837;55.700;37.984;2023-05-07T03:48:35;5.18;;;3.30;;
55931;SDS011;41837;55.700;37.984;2023-05-07T03:51:01;5.50;;;3.25;;
55931;SDS011;41837;55.700;37.984;2023-05-07T03:53:31;6.43;;;2.90;;
55931;SDS011;41837;55.700;37.984;2023-05-07T03:55:58;6.78;;;3.10;;
55931;SDS011;41837;55.700;37.984;2023-05-07T03:58:25;8.63;;;2.70;;
55931;SDS011;41837;55.700;37.984;2023-05-07T04:00:53;4.82;;;2.28;;
55931;SDS011;41837;55.700;37.984;2023-05-07T04:03:26;4.38;;;2.50;;
55931;SDS011;41837;55.700;37.984;2023-05-07T04:05:54;5.53;;;2.58;;
55931;SDS011;41837;55.700;37.984;2023-05-07T04:08:21;3.55;;;2.05;;
55931;SDS011;41837;55.700;37.984;2023-05-07T04:10:57;6.72;;;2.28;;
55931;SDS011;41837;55.700;37.984;2023-05-07T04:13:27;7.97;;;2.47;;
55931;SDS011;41837;55.700;37.984;2023-05-07T04:15:56;3.75;;;2.22;;
55931;SDS011;41837;55.700;37.984;2023-05-07T04:18:24;2.33;;;1.90;;
55931;SDS011;41837;55.700;37.984;2023-05-07T04:20:50;3.10;;;2.13;;
55931;SDS011;41837;55.700;37.984;2023-05-07T04:23:17;3.42;;;2.42;;
55931;SDS011;41837;55.700;37.984;2023-05-07T04:25:44;5.40;;;2.50;;
55931;SDS011;41837;55.700;37.984;2023-05-07T04:28:21;4.13;;;2.50;;
55931;SDS011;41837;55.700;37.984;2023-05-07T04:30:48;3.65;;;2.30;;
55931;SDS011;41837;55.700;37.984;2023-05-07T04:33:15;3.95;;;2.47;;
55931;SDS011;41837;55.700;37.984;2023-05-07T04:35:45;5.60;;;2.00;;
55931;SDS011;41837;55.700;37.984;2023-05-07T04:38:12;3.67;;;2.05;;
55931;SDS011;41837;55.700;37.984;2023-05-07T04:40:39;4.25;;;2.33;;
55931;SDS011;41837;55.700;37.984;2023-05-07T04:43:06;2.55;;;2.10;;
55931;SDS011;41837;55.700;37.984;2023-05-07T04:45:42;3.33;;;2.10;;
55931;SDS011;41837;55.700;37.984;2023-05-07T04:48:09;2.90;;;1.85;;
55931;SDS011;41837;55.700;37.984;2023-05-07T04:50:38;2.78;;;1.88;;
55931;SDS011;41837;55.700;37.984;2023-05-07T04:53:06;2.50;;;1.77;;
55931;SDS011;41837;55.700;37.984;2023-05-07T04:55:32;2.22;;;1.85;;
55931;SDS011;41837;55.700;37.984;2023-05-07T04:57:58;2.45;;;1.80;;
55931;SDS011;41837;55.700;37.984;2023-05-07T05:00:27;3.17;;;1.92;;
55931;SDS011;41837;55.700;37.984;2023-05-07T05:02:58;3.33;;;1.80;;
55931;SDS011;41837;55.700;37.984;2023-05-07T05:05:24;3.58;;;1.70;;
55931;SDS011;41837;55.700;37.984;2023-05-07T05:07:52;2.33;;;1.33;;
55931;SDS011;41837;55.700;37.984;2023-05-07T05:10:19;2.35;;;1.60;;
55931;SDS011;41837;55.700;37.984;2023-05-07T05:12:46;3.15;;;1.63;;
55931;SDS011;41837;55.700;37.984;2023-05-07T05:15:26;2.45;;;1.67;;
55931;SDS011;41837;55.700;37.984;2023-05-07T05:17:52;2.42;;;1.52;;
55931;SDS011;41837;55.700;37.984;2023-05-07T05:20:19;2.38;;;1.60;;
55931;SDS011;41837;55.700;37.984;2023-05-07T05:22:47;2.63;;;1.70;;
55931;SDS011;41837;55.700;37.984;2023-05-07T05:25:13;4.30;;;1.48;;
55931;SDS011;41837;55.700;37.984;2023-05-07T05:27:40;2.97;;;1.60;;
55931;SDS011;41837;55.700;37.984;2023-05-07T05:30:07;2.97;;;1.52;;
55931;SDS011;41837;55.700;37.984;2023-05-07T05:32:46;3.78;;;1.40;;
55931;SDS011;41837;55.700;37.984;2023-05-07T05:35:12;3.53;;;1.52;;
55931;SDS011;41837;55.700;37.984;2023-05-07T05:37:39;3.63;;;1.83;;
55931;SDS011;41837;55.700;37.984;2023-05-07T05:40:07;3.03;;;1.35;;
55931;SDS011;41837;55.700;37.984;2023-05-07T05:42:34;2.53;;;1.65;;
55931;SDS011;41837;55.700;37.984;2023-05-07T05:45:00;2.90;;;1.55;;
55931;SDS011;41837;55.700;37.984;2023-05-07T05:47:31;2.45;;;1.77;;
55931;SDS011;41837;55.700;37.984;2023-05-07T05:49:57;5.90;;;2.97;;
55931;SDS011;41837;55.700;37.984;2023-05-07T05:52:24;4.20;;;1.85;;
55931;SDS011;41837;55.700;37.984;2023-05-07T05:54:51;2.35;;;1.25;;
55931;SDS011;41837;55.700;37.984;2023-05-07T05:57:18;2.72;;;1.20;;
55931;SDS011;41837;55.700;37.984;2023-05-07T05:59:44;2.05;;;1.45;;
55931;SDS011;41837;55.700;37.984;2023-05-07T06:02:12;3.08;;;1.02;;
55931;SDS011;41837;55.700;37.984;2023-05-07T06:04:39;1.45;;;1.13;;
55931;SDS011;41837;55.700;37.984;2023-05-07T06:07:06;2.45;;;1.23;;
55931;SDS011;41837;55.700;37.984;2023-05-07T06:09:32;4.60;;;1.33;;
55931;SDS011;41837;55.700;37.984;2023-05-07T06:11:58;3.47;;;1.40;;
55931;SDS011;41837;55.700;37.984;2023-05-07T06:14:24;4.47;;;1.45;;
55931;SDS011;41837;55.700;37.984;2023-05-07T06:16:52;1.48;;;1.10;;
55931;SDS011;41837;55.700;37.984;2023-05-07T06:19:18;5.32;;;1.58;;
55931;SDS011;41837;55.700;37.984;2023-05-07T06:21:50;3.20;;;1.88;;
55931;SDS011;41837;55.700;37.984;2023-05-07T06:24:15;2.92;;;1.50;;
55931;SDS011;41837;55.700;37.984;2023-05-07T06:26:42;2.33;;;1.35;;
55931;SDS011;41837;55.700;37.984;2023-05-07T06:29:08;3.63;;;1.52;;
55931;SDS011;41837;55.700;37.984;2023-05-07T06:31:35;6.78;;;1.55;;
55931;SDS011;41837;55.700;37.984;2023-05-07T06:34:04;3.97;;;1.40;;
55931;SDS011;41837;55.700;37.984;2023-05-07T06:36:35;4.50;;;1.77;;
55931;SDS011;41837;55.700;37.984;2023-05-07T06:39:09;2.03;;;1.40;;
55931;SDS011;41837;55.700;37.984;2023-05-07T06:41:36;2.20;;;1.30;;
55931;SDS011;41837;55.700;37.984;2023-05-07T06:44:08;2.05;;;1.40;;
55931;SDS011;41837;55.700;37.984;2023-05-07T06:46:43;4.57;;;1.98;;
55931;SDS011;41837;55.700;37.984;2023-05-07T06:49:10;1.77;;;1.02;;
55931;SDS011;41837;55.700;37.984;2023-05-07T06:51:38;1.88;;;0.90;;
55931;SDS011;41837;55.700;37.984;2023-05-07T06:54:04;1.75;;;1.20;;
55931;SDS011;41837;55.700;37.984;2023-05-07T06:56:32;4.70;;;1.20;;
55931;SDS011;41837;55.700;37.984;2023-05-07T06:59:00;2.17;;;1.15;;
55931;SDS011;41837;55.700;37.984;2023-05-07T07:01:31;4.20;;;1.38;;
55931;SDS011;41837;55.700;37.984;2023-05-07T07:03:59;4.50;;;1.45;;
55931;SDS011;41837;55.700;37.984;2023-05-07T07:06:27;2.15;;;1.40;;
55931;SDS011;41837;55.700;37.984;2023-05-07T07:08:54;2.95;;;1.10;;
55931;SDS011;41837;55.700;37.984;2023-05-07T07:11:20;2.53;;;1.00;;
55931;SDS011;41837;55.700;37.984;2023-05-07T07:13:47;6.65;;;1.50;;
55931;SDS011;41837;55.700;37.984;2023-05-07T07:16:13;3.35;;;1.05;;
55931;SDS011;41837;55.700;37.984;2023-05-07T07:18:40;3.58;;;0.90;;
55931;SDS011;41837;55.700;37.984;2023-05-07T07:21:06;2.20;;;1.25;;
55931;SDS011;41837;55.700;37.984;2023-05-07T07:23:33;10.30;;;2.25;;
55931;SDS011;41837;55.700;37.984;2023-05-07T07:25:59;2.90;;;1.08;;
55931;SDS011;41837;55.700;37.984;2023-05-07T07:28:27;3.72;;;1.15;;
55931;SDS011;41837;55.700;37.984;2023-05-07T07:30:53;2.55;;;1.02;;
55931;SDS011;41837;55.700;37.984;2023-05-07T07:33:19;1.60;;;0.82;;
55931;SDS011;41837;55.700;37.984;2023-05-07T07:35:45;2.75;;;1.05;;
55931;SDS011;41837;55.700;37.984;2023-05-07T07:38:11;3.80;;;1.30;;
55931;SDS011;41837;55.700;37.984;2023-05-07T07:40:38;2.28;;;1.00;;
55931;SDS011;41837;55.700;37.984;2023-05-07T07:43:07;3.47;;;1.00;;
55931;SDS011;41837;55.700;37.984;2023-05-07T07:45:33;14.00;;;2.03;;
55931;SDS011;41837;55.700;37.984;2023-05-07T07:48:00;4.22;;;1.00;;
55931;SDS011;41837;55.700;37.984;2023-05-07T07:50:27;5.00;;;0.90;;
55931;SDS011;41837;55.700;37.984;2023-05-07T07:52:54;10.82;;;1.05;;
55931;SDS011;41837;55.700;37.984;2023-05-07T07:55:20;3.30;;;0.95;;
55931;SDS011;41837;55.700;37.984;2023-05-07T07:57:51;7.45;;;1.45;;
55931;SDS011;41837;55.700;37.984;2023-05-07T08:00:17;2.63;;;1.10;;
55931;SDS011;41837;55.700;37.984;2023-05-07T08:02:43;5.15;;;1.17;;
55931;SDS011;41837;55.700;37.984;2023-05-07T08:05:18;4.03;;;1.35;;
55931;SDS011;41837;55.700;37.984;2023-05-07T08:07:47;1.88;;;1.25;;
55931;SDS011;41837;55.700;37.984;2023-05-07T08:10:21;8.25;;;1.65;;
55931;SDS011;41837;55.700;37.984;2023-05-07T08:12:50;2.45;;;0.80;;
55931;SDS011;41837;55.700;37.984;2023-05-07T08:15:17;1.80;;;1.08;;
55931;SDS011;41837;55.700;37.984;2023-05-07T08:17:44;5.05;;;1.35;;
55931;SDS011;41837;55.700;37.984;2023-05-07T08:20:11;5.70;;;0.93;;
55931;SDS011;41837;55.700;37.984;2023-05-07T08:22:38;7.55;;;1.27;;
55931;SDS011;41837;55.700;37.984;2023-05-07T08:25:06;6.05;;;1.60;;
55931;SDS011;41837;55.700;37.984;2023-05-07T08:27:33;5.47;;;1.92;;
55931;SDS011;41837;55.700;37.984;2023-05-07T08:29:59;5.55;;;1.10;;
55931;SDS011;41837;55.700;37.984;2023-05-07T08:32:30;3.50;;;1.20;;
55931;SDS011;41837;55.700;37.984;2023-05-07T08:34:57;2.38;;;1.40;;
55931;SDS011;41837;55.700;37.984;2023-05-07T08:37:23;8.80;;;1.50;;
55931;SDS011;41837;55.700;37.984;2023-05-07T08:39:50;5.60;;;1.90;;
55931;SDS011;41837;55.700;37.984;2023-05-07T08:42:20;5.18;;;0.80;;
55931;SDS011;41837;55.700;37.984;2023-05-07T08:44:50;1.67;;;0.80;;
55931;SDS011;41837;55.700;37.984;2023-05-07T08:47:22;3.28;;;0.98;;
55931;SDS011;41837;55.700;37.984;2023-05-07T08:49:58;2.47;;;0.93;;
55931;SDS011;41837;55.700;37.984;2023-05-07T08:52:26;2.78;;;1.20;;
55931;SDS011;41837;55.700;37.984;2023-05-07T08:54:52;4.47;;;1.65;;
55931;SDS011;41837;55.700;37.984;2023-05-07T08:57:19;6.82;;;1.38;;
55931;SDS011;41837;55.700;37.984;2023-05-07T08:59:46;1.30;;;0.90;;
55931;SDS011;41837;55.700;37.984;2023-05-07T09:02:12;5.22;;;1.20;;
55931;SDS011;41837;55.700;37.984;2023-05-07T09:04:39;7.55;;;1.63;;
55931;SDS011;41837;55.700;37.984;2023-05-07T09:07:05;22.02;;;1.92;;
55931;SDS011;41837;55.700;37.984;2023-05-07T09:09:35;6.03;;;1.13;;
55931;SDS011;41837;55.700;37.984;2023-05-07T09:12:03;3.45;;;1.00;;
55931;SDS011;41837;55.700;37.984;2023-05-07T09:14:32;6.80;;;1.13;;
55931;SDS011;41837;55.700;37.984;2023-05-07T09:16:59;5.90;;;1.20;;
55931;SDS011;41837;55.700;37.984;2023-05-07T09:19:26;7.68;;;1.25;;
55931;SDS011;41837;55.700;37.984;2023-05-07T09:21:58;3.13;;;1.20;;
55931;SDS011;41837;55.700;37.984;2023-05-07T09:24:37;3.25;;;1.38;;
55931;SDS011;41837;55.700;37.984;2023-05-07T09:27:06;3.20;;;1.50;;
55931;SDS011;41837;55.700;37.984;2023-05-07T09:29:35;8.15;;;1.90;;
55931;SDS011;41837;55.700;37.984;2023-05-07T09:32:07;2.85;;;1.30;;
55931;SDS011;41837;55.700;37.984;2023-05-07T09:34:35;5.82;;;1.48;;
55931;SDS011;41837;55.700;37.984;2023-05-07T09:37:03;3.45;;;1.30;;
55931;SDS011;41837;55.700;37.984;2023-05-07T09:40:04;3.65;;;1.10;;
55931;SDS011;41837;55.700;37.984;2023-05-07T09:42:26;5.73;;;1.30;;
55931;SDS011;41837;55.700;37.984;2023-05-07T09:44:55;4.35;;;1.30;;
55931;SDS011;41837;55.700;37.984;2023-05-07T09:47:26;4.35;;;1.45;;
55931;SDS011;41837;55.700;37.984;2023-05-07T09:49:58;2.53;;;1.10;;
55931;SDS011;41837;55.700;37.984;2023-05-07T09:52:30;5.95;;;2.00;;
55931;SDS011;41837;55.700;37.984;2023-05-07T09:55:02;2.92;;;1.30;;
55931;SDS011;41837;55.700;37.984;2023-05-07T09:57:31;1.98;;;1.33;;
55931;SDS011;41837;55.700;37.984;2023-05-07T10:00:03;3.88;;;1.13;;
55931;SDS011;41837;55.700;37.984;2023-05-07T10:02:48;2.47;;;1.35;;
55931;SDS011;41837;55.700;37.984;2023-05-07T10:05:21;2.08;;;1.08;;
55931;SDS011;41837;55.700;37.984;2023-05-07T10:07:50;6.13;;;1.25;;
55931;SDS011;41837;55.700;37.984;2023-05-07T10:10:17;3.08;;;1.20;;
55931;SDS011;41837;55.700;37.984;2023-05-07T10:12:46;1.98;;;1.10;;
55931;SDS011;41837;55.700;37.984;2023-05-07T10:15:19;1.35;;;0.90;;
55931;SDS011;41837;55.700;37.984;2023-05-07T10:17:50;2.08;;;1.20;;
55931;SDS011;41837;55.700;37.984;2023-05-07T10:20:19;1.67;;;0.73;;
55931;SDS011;41837;55.700;37.984;2023-05-07T10:22:47;2.10;;;0.90;;
55931;SDS011;41837;55.700;37.984;2023-05-07T10:25:23;2.80;;;1.03;;
55931;SDS011;41837;55.700;37.984;2023-05-07T10:27:54;5.18;;;1.08;;
55931;SDS011;41837;55.700;37.984;2023-05-07T10:32:56;7.93;;;1.27;;
55931;SDS011;41837;55.700;37.984;2023-05-07T10:35:37;2.15;;;1.20;;
55931;SDS011;41837;55.700;37.984;2023-05-07T10:40:36;3.60;;;1.45;;
55931;SDS011;41837;55.700;37.984;2023-05-07T10:43:04;2.28;;;1.02;;
55931;SDS011;41837;55.700;37.984;2023-05-07T10:45:37;2.28;;;1.13;;
55931;SDS011;41837;55.700;37.984;2023-05-07T10:48:15;5.50;;;1.23;;
55931;SDS011;41837;55.700;37.984;2023-05-07T10:50:47;3.53;;;1.20;;
55931;SDS011;41837;55.700;37.984;2023-05-07T10:55:49;9.23;;;1.33;;
55931;SDS011;41837;55.700;37.984;2023-05-07T10:59:29;3.28;;;1.20;;
55931;SDS011;41837;55.700;37.984;2023-05-07T11:01:54;8.20;;;1.23;;
55931;SDS011;41837;55.700;37.984;2023-05-07T11:04:28;4.15;;;1.30;;
55931;SDS011;41837;55.700;37.984;2023-05-07T11:15:15;2.78;;;1.20;;
55931;SDS011;41837;55.700;37.984;2023-05-07T11:18:09;4.20;;;1.70;;
55931;SDS011;41837;55.700;37.984;2023-05-07T11:20:45;3.30;;;1.60;;
55931;SDS011;41837;55.700;37.984;2023-05-07T11:26:09;5.18;;;1.60;;
55931;SDS011;41837;55.700;37.984;2023-05-07T11:28:38;4.30;;;1.15;;
55931;SDS011;41837;55.700;37.984;2023-05-07T11:31:10;1.73;;;1.10;;
55931;SDS011;41837;55.700;37.984;2023-05-07T11:33:39;1.58;;;1.30;;
55931;SDS011;41837;55.700;37.984;2023-05-07T11:36:08;3.65;;;1.40;;
55931;SDS011;41837;55.700;37.984;2023-05-07T11:38:42;5.07;;;1.30;;
55931;SDS011;41837;55.700;37.984;2023-05-07T11:41:08;3.83;;;1.30;;
55931;SDS011;41837;55.700;37.984;2023-05-07T11:43:35;7.78;;;2.20;;
55931;SDS011;41837;55.700;37.984;2023-05-07T11:46:08;5.88;;;2.10;;
55931;SDS011;41837;55.700;37.984;2023-05-07T11:48:36;4.90;;;2.20;;
55931;SDS011;41837;55.700;37.984;2023-05-07T11:51:03;5.75;;;1.20;;
55931;SDS011;41837;55.700;37.984;2023-05-07T11:53:38;8.60;;;2.00;;
55931;SDS011;41837;55.700;37.984;2023-05-07T11:56:07;7.35;;;1.20;;
55931;SDS011;41837;55.700;37.984;2023-05-07T11:58:34;5.85;;;1.40;;
55931;SDS011;41837;55.700;37.984;2023-05-07T12:01:00;2.60;;;1.13;;
55931;SDS011;41837;55.700;37.984;2023-05-07T12:03:27;4.95;;;1.80;;
55931;SDS011;41837;55.700;37.984;2023-05-07T12:05:53;2.40;;;1.15;;
55931;SDS011;41837;55.700;37.984;2023-05-07T12:08:20;3.60;;;1.50;;
55931;SDS011;41837;55.700;37.984;2023-05-07T12:10:48;3.33;;;1.52;;
55931;SDS011;41837;55.700;37.984;2023-05-07T12:15:50;4.07;;;1.17;;
55931;SDS011;41837;55.700;37.984;2023-05-07T12:18:21;4.95;;;1.48;;
55931;SDS011;41837;55.700;37.984;2023-05-07T12:20:48;2.47;;;1.15;;
55931;SDS011;41837;55.700;37.984;2023-05-07T12:23:15;3.83;;;2.35;;
55931;SDS011;41837;55.700;37.984;2023-05-07T12:25:42;5.85;;;1.60;;
55931;SDS011;41837;55.700;37.984;2023-05-07T12:28:14;10.63;;;2.85;;
55931;SDS011;41837;55.700;37.984;2023-05-07T12:30:42;3.30;;;1.48;;
55931;SDS011;41837;55.700;37.984;2023-05-07T12:33:10;2.28;;;1.15;;
55931;SDS011;41837;55.700;37.984;2023-05-07T12:35:37;3.30;;;1.48;;
55931;SDS011;41837;55.700;37.984;2023-05-07T12:38:13;3.22;;;1.27;;
55931;SDS011;41837;55.700;37.984;2023-05-07T12:43:14;6.00;;;2.03;;
55931;SDS011;41837;55.700;37.984;2023-05-07T12:45:48;11.55;;;2.72;;
55931;SDS011;41837;55.700;37.984;2023-05-07T12:48:16;4.22;;;1.95;;
55931;SDS011;41837;55.700;37.984;2023-05-07T12:50:42;3.75;;;1.67;;
55931;SDS011;41837;55.700;37.984;2023-05-07T12:53:09;5.97;;;1.40;;
55931;SDS011;41837;55.700;37.984;2023-05-07T12:55:41;5.10;;;1.60;;
55931;SDS011;41837;55.700;37.984;2023-05-07T12:58:30;6.30;;;1.40;;
55931;SDS011;41837;55.700;37.984;2023-05-07T13:01:00;2.47;;;1.40;;
55931;SDS011;41837;55.700;37.984;2023-05-07T13:03:32;6.07;;;2.10;;
55931;SDS011;41837;55.700;37.984;2023-05-07T13:06:01;6.68;;;1.90;;
55931;SDS011;41837;55.700;37.984;2023-05-07T13:08:30;2.17;;;1.60;;
55931;SDS011;41837;55.700;37.984;2023-05-07T13:10:58;2.30;;;1.50;;
55931;SDS011;41837;55.700;37.984;2023-05-07T13:13:33;5.50;;;1.67;;
55931;SDS011;41837;55.700;37.984;2023-05-07T13:16:04;3.97;;;1.48;;
55931;SDS011;41837;55.700;37.984;2023-05-07T13:18:31;5.35;;;1.15;;
55931;SDS011;41837;55.700;37.984;2023-05-07T13:20:59;4.13;;;1.48;;
55931;SDS011;41837;55.700;37.984;2023-05-07T13:23:26;2.47;;;1.15;;
55931;SDS011;41837;55.700;37.984;2023-05-07T13:25:52;3.30;;;1.20;;
55931;SDS011;41837;55.700;37.984;2023-05-07T13:28:22;7.35;;;1.70;;
55931;SDS011;41837;55.700;37.984;2023-05-07T13:30:49;7.57;;;1.67;;
55931;SDS011;41837;55.700;37.984;2023-05-07T13:33:17;4.90;;;1.45;;
55931;SDS011;41837;55.700;37.984;2023-05-07T13:35:44;4.15;;;1.50;;
55931;SDS011;41837;55.700;37.984;2023-05-07T13:38:11;4.00;;;1.35;;
55931;SDS011;41837;55.700;37.984;2023-05-07T13:40:37;3.00;;;1.40;;
55931;SDS011;41837;55.700;37.984;2023-05-07T13:43:05;2.75;;;1.25;;
55931;SDS011;41837;55.700;37.984;2023-05-07T13:45:31;2.85;;;1.50;;
55931;SDS011;41837;55.700;37.984;2023-05-07T13:47:57;1.77;;;1.15;;
55931;SDS011;41837;55.700;37.984;2023-05-07T13:50:24;8.57;;;1.70;;
55931;SDS011;41837;55.700;37.984;2023-05-07T13:52:53;7.03;;;2.00;;
55931;SDS011;41837;55.700;37.984;2023-05-07T13:55:19;7.10;;;2.03;;
55931;SDS011;41837;55.700;37.984;2023-05-07T13:57:47;2.63;;;1.20;;
55931;SDS011;41837;55.700;37.984;2023-05-07T14:00:13;2.72;;;1.40;;
55931;SDS011;41837;55.700;37.984;2023-05-07T14:02:41;9.05;;;2.75;;
55931;SDS011;41837;55.700;37.984;2023-05-07T14:05:08;6.50;;;1.38;;
55931;SDS011;41837;55.700;37.984;2023-05-07T14:07:35;2.13;;;1.25;;
55931;SDS011;41837;55.700;37.984;2023-05-07T14:10:02;8.00;;;4.50;;
55931;SDS011;41837;55.700;37.984;2023-05-07T14:12:32;8.23;;;4.40;;
55931;SDS011;41837;55.700;37.984;2023-05-07T14:14:58;4.30;;;2.83;;
55931;SDS011;41837;55.700;37.984;2023-05-07T14:17:25;3.50;;;2.15;;
55931;SDS011;41837;55.700;37.984;2023-05-07T14:19:53;3.30;;;2.00;;
55931;SDS011;41837;55.700;37.984;2023-05-07T14:22:21;7.95;;;3.88;;
55931;SDS011;41837;55.700;37.984;2023-05-07T14:24:49;14.82;;;11.25;;
55931;SDS011;41837;55.700;37.984;2023-05-07T14:27:16;9.25;;;4.75;;
55931;SDS011;41837;55.700;37.984;2023-05-07T14:29:42;5.22;;;2.55;;
55931;SDS011;41837;55.700;37.984;2023-05-07T14:32:09;2.42;;;1.27;;
55931;SDS011;41837;55.700;37.984;2023-05-07T14:34:35;2.17;;;1.25;;
55931;SDS011;41837;55.700;37.984;2023-05-07T14:37:01;3.03;;;1.30;;
55931;SDS011;41837;55.700;37.984;2023-05-07T14:39:28;4.10;;;1.13;;
55931;SDS011;41837;55.700;37.984;2023-05-07T14:41:55;3.22;;;1.67;;
55931;SDS011;41837;55.700;37.984;2023-05-07T14:44:23;15.80;;;6.32;;
55931;SDS011;41837;55.700;37.984;2023-05-07T14:46:50;6.35;;;3.47;;
55931;SDS011;41837;55.700;37.984;2023-05-07T14:49:16;3.55;;;1.88;;
55931;SDS011;41837;55.700;37.984;2023-05-07T14:51:43;2.95;;;1.40;;
55931;SDS011;41837;55.700;37.984;2023-05-07T14:54:11;2.75;;;1.30;;
55931;SDS011;41837;55.700;37.984;2023-05-07T14:56:39;6.18;;;1.65;;
55931;SDS011;41837;55.700;37.984;2023-05-07T14:59:06;5.65;;;1.85;;
55931;SDS011;41837;55.700;37.984;2023-05-07T15:01:36;2.70;;;1.38;;